sensor_id;sensor_type;location;lat;lon;timestamp;pressure;altitude;pressure_sealevel;temperature;humidity
61900;BME280;47853;55.890;37.664;2022-08-07T00:00:50;99482.78;;;25.24;51.58
61900;BME280;47853;55.890;37.664;2022-08-07T00:03:16;99487.97;;;25.31;51.12
61900;BME280;47853;55.890;37.664;2022-08-07T00:05:41;99489.88;;;25.25;51.30
61900;BME280;47853;55.890;37.664;2022-08-07T00:08:10;99466.03;;;24.95;52.20
61900;BME280;47853;55.890;37.664;2022-08-07T00:10:36;99487.19;;;25.36;51.30
61900;BME280;47853;55.890;37.664;2022-08-07T00:13:10;99487.59;;;25.12;51.63
61900;BME280;47853;55.890;37.664;2022-08-07T00:15:36;99474.50;;;25.03;52.45
61900;BME280;47853;55.890;37.664;2022-08-07T00:18:03;99482.97;;;25.07;52.08
61900;BME280;47853;55.890;37.664;2022-08-07T00:20:28;99474.59;;;24.76;52.81
61900;BME280;47853;55.890;37.664;2022-08-07T00:22:53;99474.25;;;24.72;52.87
61900;BME280;47853;55.890;37.664;2022-08-07T00:25:19;99463.44;;;25.15;51.73
61900;BME280;47853;55.890;37.664;2022-08-07T00:27:44;99461.63;;;25.31;51.66
61900;BME280;47853;55.890;37.664;2022-08-07T00:30:10;99477.44;;;25.40;50.81
61900;BME280;47853;55.890;37.664;2022-08-07T00:32:35;99482.16;;;25.55;51.41
61900;BME280;47853;55.890;37.664;2022-08-07T00:35:01;99479.56;;;25.32;52.29
61900;BME280;47853;55.890;37.664;2022-08-07T00:37:26;99482.31;;;25.38;52.27
61900;BME280;47853;55.890;37.664;2022-08-07T00:39:52;99481.00;;;25.45;51.31
61900;BME280;47853;55.890;37.664;2022-08-07T00:42:17;99457.72;;;25.12;52.29
61900;BME280;47853;55.890;37.664;2022-08-07T00:44:42;99477.28;;;25.14;52.29
61900;BME280;47853;55.890;37.664;2022-08-07T00:47:08;99470.00;;;24.76;53.23
61900;BME280;47853;55.890;37.664;2022-08-07T00:49:33;99456.69;;;24.47;53.81
61900;BME280;47853;55.890;37.664;2022-08-07T00:51:58;99452.59;;;24.45;53.75
61900;BME280;47853;55.890;37.664;2022-08-07T00:54:24;99479.13;;;24.70;53.31
61900;BME280;47853;55.890;37.664;2022-08-07T00:56:50;99476.97;;;24.72;54.11
61900;BME280;47853;55.890;37.664;2022-08-07T00:59:17;99454.81;;;24.81;52.94
61900;BME280;47853;55.890;37.664;2022-08-07T01:01:42;99462.81;;;24.98;52.23
61900;BME280;47853;55.890;37.664;2022-08-07T01:04:08;99463.84;;;24.97;52.97
61900;BME280;47853;55.890;37.664;2022-08-07T01:06:33;99463.97;;;24.74;53.50
61900;BME280;47853;55.890;37.664;2022-08-07T01:09:01;99469.50;;;24.85;53.42
61900;BME280;47853;55.890;37.664;2022-08-07T01:11:30;99476.03;;;24.56;53.65
61900;BME280;47853;55.890;37.664;2022-08-07T01:13:57;99472.44;;;24.78;53.39
61900;BME280;47853;55.890;37.664;2022-08-07T01:16:23;99474.38;;;24.83;53.12
61900;BME280;47853;55.890;37.664;2022-08-07T01:18:48;99468.38;;;24.81;53.31
61900;BME280;47853;55.890;37.664;2022-08-07T01:21:16;99461.50;;;24.73;54.10
61900;BME280;47853;55.890;37.664;2022-08-07T01:23:43;99476.03;;;24.56;54.44
61900;BME280;47853;55.890;37.664;2022-08-07T01:26:11;99464.44;;;24.33;55.33
61900;BME280;47853;55.890;37.664;2022-08-07T01:28:41;99472.38;;;24.13;56.10
61900;BME280;47853;55.890;37.664;2022-08-07T01:31:07;99457.13;;;24.34;54.98
61900;BME280;47853;55.890;37.664;2022-08-07T01:33:33;99463.88;;;24.31;55.73
61900;BME280;47853;55.890;37.664;2022-08-07T01:35:59;99475.38;;;24.44;55.38
61900;BME280;47853;55.890;37.664;2022-08-07T01:38:25;99460.28;;;24.26;55.59
61900;BME280;47853;55.890;37.664;2022-08-07T01:40:54;99449.56;;;24.09;55.90
61900;BME280;47853;55.890;37.664;2022-08-07T01:43:19;99458.44;;;24.04;56.29
61900;BME280;47853;55.890;37.664;2022-08-07T01:45:45;99447.88;;;23.18;58.76
61900;BME280;47853;55.890;37.664;2022-08-07T01:48:11;99462.13;;;23.48;58.10
61900;BME280;47853;55.890;37.664;2022-08-07T01:50:37;99469.31;;;23.59;58.08
61900;BME280;47853;55.890;37.664;2022-08-07T01:53:05;99477.16;;;23.39;58.89
61900;BME280;47853;55.890;37.664;2022-08-07T01:55:38;99463.31;;;23.35;59.28
61900;BME280;47853;55.890;37.664;2022-08-07T01:58:08;99465.06;;;23.46;58.71
61900;BME280;47853;55.890;37.664;2022-08-07T02:00:36;99466.75;;;23.13;59.77
61900;BME280;47853;55.890;37.664;2022-08-07T02:03:10;99464.78;;;23.43;59.32
61900;BME280;47853;55.890;37.664;2022-08-07T02:05:41;99465.41;;;23.50;59.16
61900;BME280;47853;55.890;37.664;2022-08-07T02:08:11;99465.53;;;23.21;59.88
61900;BME280;47853;55.890;37.664;2022-08-07T02:10:38;99464.72;;;23.21;59.75
61900;BME280;47853;55.890;37.664;2022-08-07T02:13:04;99449.16;;;22.94;61.17
61900;BME280;47853;55.890;37.664;2022-08-07T02:15:31;99437.03;;;22.79;61.33
61900;BME280;47853;55.890;37.664;2022-08-07T02:17:59;99458.28;;;22.87;61.80
61900;BME280;47853;55.890;37.664;2022-08-07T02:20:26;99462.19;;;22.97;61.26
61900;BME280;47853;55.890;37.664;2022-08-07T02:22:55;99453.66;;;23.05;61.03
61900;BME280;47853;55.890;37.664;2022-08-07T02:25:24;99458.44;;;22.64;61.95
61900;BME280;47853;55.890;37.664;2022-08-07T02:27:51;99457.13;;;23.00;61.07
61900;BME280;47853;55.890;37.664;2022-08-07T02:30:17;99433.34;;;22.85;61.12
61900;BME280;47853;55.890;37.664;2022-08-07T02:32:43;99453.00;;;22.98;61.33
61900;BME280;47853;55.890;37.664;2022-08-07T02:35:10;99454.91;;;22.46;62.81
61900;BME280;47853;55.890;37.664;2022-08-07T02:37:38;99450.31;;;22.64;62.39
61900;BME280;47853;55.890;37.664;2022-08-07T02:40:06;99451.06;;;22.59;62.52
61900;BME280;47853;55.890;37.664;2022-08-07T02:42:32;99454.50;;;22.88;61.68
61900;BME280;47853;55.890;37.664;2022-08-07T02:45:03;99455.63;;;22.93;61.45
61900;BME280;47853;55.890;37.664;2022-08-07T02:47:29;99461.63;;;22.60;61.93
61900;BME280;47853;55.890;37.664;2022-08-07T02:49:54;99455.06;;;22.73;61.81
61900;BME280;47853;55.890;37.664;2022-08-07T02:52:38;99465.56;;;22.87;61.81
61900;BME280;47853;55.890;37.664;2022-08-07T02:55:10;99467.78;;;22.90;61.47
61900;BME280;47853;55.890;37.664;2022-08-07T02:57:37;99446.88;;;22.68;61.99
61900;BME280;47853;55.890;37.664;2022-08-07T03:00:04;99458.94;;;22.31;63.20
61900;BME280;47853;55.890;37.664;2022-08-07T03:02:31;99428.88;;;22.45;62.15
61900;BME280;47853;55.890;37.664;2022-08-07T03:04:58;99455.44;;;22.31;63.13
61900;BME280;47853;55.890;37.664;2022-08-07T03:07:25;99444.59;;;22.60;62.51
61900;BME280;47853;55.890;37.664;2022-08-07T03:09:51;99447.03;;;22.62;62.35
61900;BME280;47853;55.890;37.664;2022-08-07T03:12:17;99456.63;;;22.69;61.55
61900;BME280;47853;55.890;37.664;2022-08-07T03:14:44;99464.13;;;22.79;61.96
61900;BME280;47853;55.890;37.664;2022-08-07T03:17:09;99455.34;;;22.55;62.42
61900;BME280;47853;55.890;37.664;2022-08-07T03:19:35;99445.06;;;22.74;62.22
61900;BME280;47853;55.890;37.664;2022-08-07T03:22:03;99451.06;;;22.76;61.89
61900;BME280;47853;55.890;37.664;2022-08-07T03:24:29;99458.94;;;22.78;62.12
61900;BME280;47853;55.890;37.664;2022-08-07T03:26:59;99453.06;;;23.03;61.52
61900;BME280;47853;55.890;37.664;2022-08-07T03:29:39;99450.97;;;22.88;61.97
61900;BME280;47853;55.890;37.664;2022-08-07T03:32:09;99434.34;;;22.79;62.23
61900;BME280;47853;55.890;37.664;2022-08-07T03:34:37;99457.88;;;22.79;62.37
61900;BME280;47853;55.890;37.664;2022-08-07T03:37:03;99461.78;;;23.05;61.43
61900;BME280;47853;55.890;37.664;2022-08-07T03:39:32;99452.47;;;23.18;61.30
61900;BME280;47853;55.890;37.664;2022-08-07T03:41:59;99457.06;;;23.17;60.60
61900;BME280;47853;55.890;37.664;2022-08-07T03:44:26;99444.31;;;22.96;61.33
61900;BME280;47853;55.890;37.664;2022-08-07T03:46:52;99449.81;;;22.84;61.67
61900;BME280;47853;55.890;37.664;2022-08-07T03:49:19;99458.41;;;22.98;61.80
61900;BME280;47853;55.890;37.664;2022-08-07T03:51:45;99454.72;;;23.04;61.02
61900;BME280;47853;55.890;37.664;2022-08-07T03:54:11;99448.91;;;22.95;61.85
61900;BME280;47853;55.890;37.664;2022-08-07T03:56:37;99450.25;;;23.32;60.43
61900;BME280;47853;55.890;37.664;2022-08-07T03:59:05;99462.09;;;23.09;60.18
61900;BME280;47853;55.890;37.664;2022-08-07T04:01:31;99459.13;;;23.10;59.99
61900;BME280;47853;55.890;37.664;2022-08-07T04:03:58;99433.47;;;23.13;60.33
61900;BME280;47853;55.890;37.664;2022-08-07T04:06:24;99439.56;;;23.42;60.02
61900;BME280;47853;55.890;37.664;2022-08-07T04:08:50;99460.28;;;23.54;59.83
61900;BME280;47853;55.890;37.664;2022-08-07T04:11:17;99450.50;;;23.53;59.70
61900;BME280;47853;55.890;37.664;2022-08-07T04:13:43;99453.22;;;23.53;59.52
61900;BME280;47853;55.890;37.664;2022-08-07T04:16:09;99466.31;;;23.83;58.78
61900;BME280;47853;55.890;37.664;2022-08-07T04:18:34;99457.19;;;23.89;58.10
61900;BME280;47853;55.890;37.664;2022-08-07T04:21:00;99455.94;;;23.75;58.95
61900;BME280;47853;55.890;37.664;2022-08-07T04:23:26;99447.19;;;23.95;57.99
61900;BME280;47853;55.890;37.664;2022-08-07T04:25:52;99457.63;;;24.03;58.16
61900;BME280;47853;55.890;37.664;2022-08-07T04:28:19;99461.41;;;24.02;58.03
61900;BME280;47853;55.890;37.664;2022-08-07T04:30:48;99465.88;;;24.14;57.37
61900;BME280;47853;55.890;37.664;2022-08-07T04:33:14;99466.53;;;24.26;57.25
61900;BME280;47853;55.890;37.664;2022-08-07T04:35:40;99464.13;;;24.02;57.42
61900;BME280;47853;55.890;37.664;2022-08-07T04:38:09;99454.00;;;24.20;57.51
61900;BME280;47853;55.890;37.664;2022-08-07T04:40:38;99447.78;;;24.25;56.73
61900;BME280;47853;55.890;37.664;2022-08-07T04:43:04;99471.91;;;24.21;57.25
61900;BME280;47853;55.890;37.664;2022-08-07T04:51:36;99468.75;;;24.62;56.12
61900;BME280;47853;55.890;37.664;2022-08-07T04:54:21;99459.94;;;24.77;55.44
61900;BME280;47853;55.890;37.664;2022-08-07T04:56:55;99470.09;;;25.40;53.96
61900;BME280;47853;55.890;37.664;2022-08-07T05:02:12;99466.16;;;25.15;54.43
61900;BME280;47853;55.890;37.664;2022-08-07T05:04:54;99459.78;;;24.94;54.07
61900;BME280;47853;55.890;37.664;2022-08-07T05:07:31;99455.50;;;25.46;52.59
61900;BME280;47853;55.890;37.664;2022-08-07T05:10:07;99457.47;;;25.13;53.44
61900;BME280;47853;55.890;37.664;2022-08-07T05:12:47;99472.00;;;24.97;53.94
61900;BME280;47853;55.890;37.664;2022-08-07T05:15:17;99447.00;;;24.95;52.72
61900;BME280;47853;55.890;37.664;2022-08-07T05:17:47;99466.38;;;25.52;52.86
61900;BME280;47853;55.890;37.664;2022-08-07T05:20:16;99460.00;;;25.30;52.88
61900;BME280;47853;55.890;37.664;2022-08-07T05:22:45;99471.84;;;25.62;53.24
61900;BME280;47853;55.890;37.664;2022-08-07T05:25:14;99452.06;;;25.72;51.47
61900;BME280;47853;55.890;37.664;2022-08-07T05:27:41;99435.97;;;25.60;51.30
61900;BME280;47853;55.890;37.664;2022-08-07T05:30:08;99451.28;;;25.92;51.55
61900;BME280;47853;55.890;37.664;2022-08-07T05:32:36;99461.16;;;26.24;50.45
61900;BME280;47853;55.890;37.664;2022-08-07T05:35:02;99468.25;;;27.03;48.96
61900;BME280;47853;55.890;37.664;2022-08-07T05:37:29;99458.75;;;27.82;46.98
61900;BME280;47853;55.890;37.664;2022-08-07T05:39:55;99458.97;;;27.90;46.26
61900;BME280;47853;55.890;37.664;2022-08-07T05:42:21;99455.00;;;28.12;46.01
61900;BME280;47853;55.890;37.664;2022-08-07T05:44:47;99458.53;;;28.23;45.49
61900;BME280;47853;55.890;37.664;2022-08-07T05:47:14;99459.19;;;28.74;43.29
61900;BME280;47853;55.890;37.664;2022-08-07T05:49:40;99472.38;;;29.26;42.41
61900;BME280;47853;55.890;37.664;2022-08-07T05:52:06;99473.50;;;27.75;44.79
61900;BME280;47853;55.890;37.664;2022-08-07T05:54:32;99468.53;;;27.88;45.11
61900;BME280;47853;55.890;37.664;2022-08-07T05:56:58;99470.41;;;27.11;47.44
61900;BME280;47853;55.890;37.664;2022-08-07T05:59:25;99463.56;;;27.29;46.47
61900;BME280;47853;55.890;37.664;2022-08-07T06:01:55;99473.97;;;27.12;47.70
61900;BME280;47853;55.890;37.664;2022-08-07T06:04:22;99450.28;;;27.02;47.47
61900;BME280;47853;55.890;37.664;2022-08-07T06:06:48;99462.84;;;27.79;45.52
61900;BME280;47853;55.890;37.664;2022-08-07T06:09:14;99477.97;;;27.50;46.28
61900;BME280;47853;55.890;37.664;2022-08-07T06:11:41;99466.41;;;27.74;45.37
61900;BME280;47853;55.890;37.664;2022-08-07T06:14:06;99481.47;;;28.22;45.10
61900;BME280;47853;55.890;37.664;2022-08-07T06:16:33;99480.81;;;28.35;45.09
61900;BME280;47853;55.890;37.664;2022-08-07T06:19:00;99464.31;;;28.06;44.34
61900;BME280;47853;55.890;37.664;2022-08-07T06:21:26;99485.66;;;27.12;46.26
61900;BME280;47853;55.890;37.664;2022-08-07T06:23:52;99482.38;;;27.31;46.04
61900;BME280;47853;55.890;37.664;2022-08-07T06:26:17;99464.09;;;27.97;44.64
61900;BME280;47853;55.890;37.664;2022-08-07T06:28:51;99476.84;;;27.57;45.62
61900;BME280;47853;55.890;37.664;2022-08-07T06:31:17;99477.47;;;27.33;45.15
61900;BME280;47853;55.890;37.664;2022-08-07T06:33:43;99478.69;;;27.72;44.76
61900;BME280;47853;55.890;37.664;2022-08-07T06:36:09;99479.41;;;27.93;44.58
61900;BME280;47853;55.890;37.664;2022-08-07T06:38:34;99470.75;;;29.92;40.01
61900;BME280;47853;55.890;37.664;2022-08-07T06:41:01;99476.09;;;30.22;39.65
61900;BME280;47853;55.890;37.664;2022-08-07T06:43:32;99459.09;;;30.58;38.76
61900;BME280;47853;55.890;37.664;2022-08-07T06:45:58;99479.94;;;30.21;39.33
61900;BME280;47853;55.890;37.664;2022-08-07T06:48:23;99474.38;;;29.69;40.72
61900;BME280;47853;55.890;37.664;2022-08-07T06:50:50;99473.78;;;28.93;42.79
61900;BME280;47853;55.890;37.664;2022-08-07T06:53:16;99481.28;;;30.04;40.20
61900;BME280;47853;55.890;37.664;2022-08-07T06:55:44;99484.81;;;30.62;39.11
61900;BME280;47853;55.890;37.664;2022-08-07T06:58:11;99471.56;;;29.74;39.75
61900;BME280;47853;55.890;37.664;2022-08-07T07:00:39;99465.72;;;29.61;40.50
61900;BME280;47853;55.890;37.664;2022-08-07T07:03:05;99460.34;;;29.51;40.14
61900;BME280;47853;55.890;37.664;2022-08-07T07:05:32;99442.84;;;28.69;41.59
61900;BME280;47853;55.890;37.664;2022-08-07T07:07:57;99477.94;;;29.45;40.81
61900;BME280;47853;55.890;37.664;2022-08-07T07:10:27;99455.38;;;29.29;40.73
61900;BME280;47853;55.890;37.664;2022-08-07T07:13:18;99469.03;;;29.04;40.83
61900;BME280;47853;55.890;37.664;2022-08-07T07:15:45;99487.34;;;28.74;41.56
61900;BME280;47853;55.890;37.664;2022-08-07T07:20:48;99483.66;;;27.59;44.26
61900;BME280;47853;55.890;37.664;2022-08-07T07:23:15;99475.00;;;27.31;44.61
61900;BME280;47853;55.890;37.664;2022-08-07T07:25:42;99486.16;;;27.40;44.91
61900;BME280;47853;55.890;37.664;2022-08-07T07:28:19;99488.06;;;27.50;44.80
61900;BME280;47853;55.890;37.664;2022-08-07T07:30:50;99492.06;;;27.73;44.44
61900;BME280;47853;55.890;37.664;2022-08-07T07:33:18;99505.53;;;27.23;45.89
61900;BME280;47853;55.890;37.664;2022-08-07T07:35:49;99492.75;;;27.29;45.97
61900;BME280;47853;55.890;37.664;2022-08-07T07:38:17;99496.31;;;27.09;46.39
61900;BME280;47853;55.890;37.664;2022-08-07T07:40:43;99524.09;;;26.79;48.11
61900;BME280;47853;55.890;37.664;2022-08-07T07:43:09;99506.38;;;26.72;49.24
61900;BME280;47853;55.890;37.664;2022-08-07T07:48:51;99518.03;;;24.76;57.86
61900;BME280;47853;55.890;37.664;2022-08-07T07:51:19;99508.41;;;24.96;57.46
61900;BME280;47853;55.890;37.664;2022-08-07T07:53:46;99476.44;;;25.08;56.16
61900;BME280;47853;55.890;37.664;2022-08-07T07:56:13;99480.16;;;25.40;56.81
61900;BME280;47853;55.890;37.664;2022-08-07T07:58:39;99479.28;;;25.34;59.51
61900;BME280;47853;55.890;37.664;2022-08-07T08:01:09;99482.63;;;25.41;59.76
61900;BME280;47853;55.890;37.664;2022-08-07T08:03:36;99475.09;;;25.54;58.73
61900;BME280;47853;55.890;37.664;2022-08-07T08:06:03;99440.63;;;25.65;58.48
61900;BME280;47853;55.890;37.664;2022-08-07T08:08:31;99484.31;;;26.27;57.46
61900;BME280;47853;55.890;37.664;2022-08-07T08:10:58;99485.31;;;26.05;53.55
61900;BME280;47853;55.890;37.664;2022-08-07T08:13:26;99482.88;;;26.09;52.12
61900;BME280;47853;55.890;37.664;2022-08-07T08:15:53;99466.91;;;26.95;53.17
61900;BME280;47853;55.890;37.664;2022-08-07T08:18:22;99467.63;;;27.37;53.66
61900;BME280;47853;55.890;37.664;2022-08-07T08:20:49;99458.41;;;27.17;51.16
61900;BME280;47853;55.890;37.664;2022-08-07T08:23:16;99491.22;;;29.03;46.24
61900;BME280;47853;55.890;37.664;2022-08-07T08:25:46;99476.72;;;29.75;46.05
61900;BME280;47853;55.890;37.664;2022-08-07T08:28:21;99485.38;;;30.07;37.58
61900;BME280;47853;55.890;37.664;2022-08-07T08:30:46;99489.19;;;27.99;48.31
61900;BME280;47853;55.890;37.664;2022-08-07T08:33:15;99483.59;;;27.75;47.97
61900;BME280;47853;55.890;37.664;2022-08-07T08:35:46;99481.06;;;26.45;49.19
61900;BME280;47853;55.890;37.664;2022-08-07T08:38:13;99457.13;;;27.75;45.77
61900;BME280;47853;55.890;37.664;2022-08-07T08:40:47;99450.59;;;28.21;45.79
61900;BME280;47853;55.890;37.664;2022-08-07T08:43:20;99467.16;;;30.35;39.54
61900;BME280;47853;55.890;37.664;2022-08-07T08:49:12;99461.34;;;32.47;34.88
61900;BME280;47853;55.890;37.664;2022-08-07T08:51:51;99452.97;;;32.29;33.57
61900;BME280;47853;55.890;37.664;2022-08-07T08:54:25;99464.16;;;32.78;33.04
61900;BME280;47853;55.890;37.664;2022-08-07T08:56:53;99465.13;;;32.82;33.70
61900;BME280;47853;55.890;37.664;2022-08-07T09:07:48;99459.91;;;30.59;37.81
61900;BME280;47853;55.890;37.664;2022-08-07T09:19:20;99453.34;;;33.89;34.09
61900;BME280;47853;55.890;37.664;2022-08-07T09:25:11;99422.28;;;33.31;34.69
61900;BME280;47853;55.890;37.664;2022-08-07T09:28:06;99438.72;;;32.73;35.81
61900;BME280;47853;55.890;37.664;2022-08-07T09:36:46;99438.09;;;34.62;33.40
61900;BME280;47853;55.890;37.664;2022-08-07T09:47:41;99414.25;;;30.54;38.39
61900;BME280;47853;55.890;37.664;2022-08-07T09:50:19;99419.25;;;29.75;42.59
61900;BME280;47853;55.890;37.664;2022-08-07T09:52:50;99408.31;;;29.75;38.58
61900;BME280;47853;55.890;37.664;2022-08-07T09:55:21;99415.25;;;29.00;42.92
61900;BME280;47853;55.890;37.664;2022-08-07T10:01:05;99412.34;;;28.91;42.96
61900;BME280;47853;55.890;37.664;2022-08-07T10:03:57;99406.66;;;28.52;46.78
61900;BME280;47853;55.890;37.664;2022-08-07T10:06:57;99413.66;;;27.94;47.50
61900;BME280;47853;55.890;37.664;2022-08-07T10:09:46;99377.63;;;27.42;48.22
61900;BME280;47853;55.890;37.664;2022-08-07T10:27:15;99403.31;;;33.03;34.57
61900;BME280;47853;55.890;37.664;2022-08-07T10:30:06;99405.44;;;31.18;34.91
61900;BME280;47853;55.890;37.664;2022-08-07T10:35:21;99404.22;;;30.63;35.10
61900;BME280;47853;55.890;37.664;2022-08-07T10:38:17;99404.22;;;31.24;33.00
61900;BME280;47853;55.890;37.664;2022-08-07T10:41:07;99399.28;;;31.49;33.20
61900;BME280;47853;55.890;37.664;2022-08-07T10:43:39;99400.25;;;31.81;32.28
61900;BME280;47853;55.890;37.664;2022-08-07T10:46:08;99403.38;;;31.89;31.22
61900;BME280;47853;55.890;37.664;2022-08-07T10:48:44;99404.38;;;31.00;32.22
61900;BME280;47853;55.890;37.664;2022-08-07T10:51:20;99389.66;;;30.49;33.62
61900;BME280;47853;55.890;37.664;2022-08-07T10:53:51;99395.41;;;30.66;33.98
61900;BME280;47853;55.890;37.664;2022-08-07T11:13:36;99398.88;;;27.50;47.91
61900;BME280;47853;55.890;37.664;2022-08-07T11:16:23;99359.91;;;27.40;48.06
61900;BME280;47853;55.890;37.664;2022-08-07T11:18:57;99377.56;;;26.97;48.94
61900;BME280;47853;55.890;37.664;2022-08-07T11:25:24;99408.31;;;25.99;52.12
61900;BME280;47853;55.890;37.664;2022-08-07T11:28:07;99390.31;;;25.72;51.70
61900;BME280;47853;55.890;37.664;2022-08-07T11:30:48;99398.78;;;25.12;53.63
61900;BME280;47853;55.890;37.664;2022-08-07T11:36:05;99414.53;;;25.10;53.38
61900;BME280;47853;55.890;37.664;2022-08-07T11:49:24;99450.63;;;24.35;55.37
61900;BME280;47853;55.890;37.664;2022-08-07T11:55:02;99460.69;;;24.40;56.46
61900;BME280;47853;55.890;37.664;2022-08-07T11:57:54;99473.31;;;24.56;56.35
61900;BME280;47853;55.890;37.664;2022-08-07T12:00:21;99469.09;;;24.71;56.61
61900;BME280;47853;55.890;37.664;2022-08-07T12:08:33;99435.34;;;24.29;57.69
61900;BME280;47853;55.890;37.664;2022-08-07T12:11:25;99460.91;;;23.83;60.07
61900;BME280;47853;55.890;37.664;2022-08-07T12:14:23;99488.72;;;23.73;60.90
61900;BME280;47853;55.890;37.664;2022-08-07T12:17:00;99484.72;;;23.37;62.89
61900;BME280;47853;55.890;37.664;2022-08-07T12:24:58;99497.66;;;23.52;64.18
61900;BME280;47853;55.890;37.664;2022-08-07T12:27:28;99494.25;;;23.61;65.27
61900;BME280;47853;55.890;37.664;2022-08-07T12:30:16;99481.16;;;23.53;65.79
61900;BME280;47853;55.890;37.664;2022-08-07T12:35:51;99493.84;;;24.19;61.91
61900;BME280;47853;55.890;37.664;2022-08-07T12:38:18;99504.47;;;24.21;62.12
61900;BME280;47853;55.890;37.664;2022-08-07T12:40:47;99505.16;;;23.89;62.03
61900;BME280;47853;55.890;37.664;2022-08-07T12:43:17;99486.63;;;23.81;61.72
61900;BME280;47853;55.890;37.664;2022-08-07T12:46:05;99493.59;;;23.71;61.79
61900;BME280;47853;55.890;37.664;2022-08-07T12:48:47;99514.88;;;23.63;61.49
61900;BME280;47853;55.890;37.664;2022-08-07T12:51:18;99523.06;;;23.28;63.47
61900;BME280;47853;55.890;37.664;2022-08-07T12:54:00;99528.59;;;23.56;62.23
61900;BME280;47853;55.890;37.664;2022-08-07T12:56:37;99530.16;;;23.52;61.48
61900;BME280;47853;55.890;37.664;2022-08-07T12:59:04;99529.34;;;23.29;62.12
61900;BME280;47853;55.890;37.664;2022-08-07T13:01:49;99541.38;;;23.38;62.36
61900;BME280;47853;55.890;37.664;2022-08-07T13:04:43;99515.63;;;23.01;63.13
61900;BME280;47853;55.890;37.664;2022-08-07T13:14:06;99526.13;;;22.98;63.99
61900;BME280;47853;55.890;37.664;2022-08-07T13:19:11;99543.16;;;23.15;63.26
61900;BME280;47853;55.890;37.664;2022-08-07T13:21:53;99538.09;;;23.75;61.17
61900;BME280;47853;55.890;37.664;2022-08-07T13:32:40;99552.34;;;24.10;60.36
61900;BME280;47853;55.890;37.664;2022-08-07T13:38:16;99564.69;;;25.05;57.28
61900;BME280;47853;55.890;37.664;2022-08-07T13:43:40;99542.50;;;24.26;59.51
61900;BME280;47853;55.890;37.664;2022-08-07T13:46:07;99545.97;;;24.22;58.76
61900;BME280;47853;55.890;37.664;2022-08-07T13:48:37;99562.53;;;24.47;58.87
61900;BME280;47853;55.890;37.664;2022-08-07T13:51:04;99543.22;;;24.44;58.14
61900;BME280;47853;55.890;37.664;2022-08-07T13:53:34;99538.59;;;24.72;57.01
61900;BME280;47853;55.890;37.664;2022-08-07T13:56:02;99560.00;;;24.41;58.03
61900;BME280;47853;55.890;37.664;2022-08-07T13:58:29;99547.53;;;24.40;57.63
61900;BME280;47853;55.890;37.664;2022-08-07T14:01:09;99554.94;;;25.10;54.99
61900;BME280;47853;55.890;37.664;2022-08-07T14:03:35;99538.97;;;25.13;53.71
61900;BME280;47853;55.890;37.664;2022-08-07T14:06:06;99532.28;;;24.94;53.84
61900;BME280;47853;55.890;37.664;2022-08-07T14:08:33;99530.44;;;24.39;54.31
61900;BME280;47853;55.890;37.664;2022-08-07T14:11:03;99542.41;;;24.43;55.13
61900;BME280;47853;55.890;37.664;2022-08-07T14:13:32;99521.22;;;24.13;55.35
61900;BME280;47853;55.890;37.664;2022-08-07T14:16:02;99524.78;;;24.46;53.81
61900;BME280;47853;55.890;37.664;2022-08-07T14:18:43;99530.00;;;24.25;54.79
61900;BME280;47853;55.890;37.664;2022-08-07T14:21:19;99538.09;;;24.47;54.57
61900;BME280;47853;55.890;37.664;2022-08-07T14:24:08;99536.28;;;24.53;54.33
61900;BME280;47853;55.890;37.664;2022-08-07T14:26:43;99539.34;;;24.95;52.93
61900;BME280;47853;55.890;37.664;2022-08-07T14:29:17;99527.47;;;25.01;51.47
61900;BME280;47853;55.890;37.664;2022-08-07T14:31:45;99528.63;;;24.50;52.99
61900;BME280;47853;55.890;37.664;2022-08-07T14:34:13;99529.69;;;24.49;53.11
61900;BME280;47853;55.890;37.664;2022-08-07T14:36:40;99527.34;;;24.58;53.04
61900;BME280;47853;55.890;37.664;2022-08-07T14:39:10;99513.53;;;24.32;53.01
61900;BME280;47853;55.890;37.664;2022-08-07T14:41:40;99517.19;;;24.21;53.93
61900;BME280;47853;55.890;37.664;2022-08-07T14:44:08;99513.59;;;24.10;53.93
61900;BME280;47853;55.890;37.664;2022-08-07T14:46:39;99510.59;;;23.89;54.72
61900;BME280;47853;55.890;37.664;2022-08-07T14:49:27;99505.53;;;23.53;55.69
61900;BME280;47853;55.890;37.664;2022-08-07T14:51:57;99502.22;;;23.68;56.05
61900;BME280;47853;55.890;37.664;2022-08-07T14:54:28;99505.78;;;23.52;55.69
61900;BME280;47853;55.890;37.664;2022-08-07T14:56:53;99510.25;;;23.24;56.43
61900;BME280;47853;55.890;37.664;2022-08-07T14:59:24;99483.28;;;23.12;55.98
61900;BME280;47853;55.890;37.664;2022-08-07T15:01:54;99500.50;;;23.23;55.62
61900;BME280;47853;55.890;37.664;2022-08-07T15:04:21;99525.84;;;23.34;56.13
61900;BME280;47853;55.890;37.664;2022-08-07T15:06:48;99522.03;;;23.52;56.01
61900;BME280;47853;55.890;37.664;2022-08-07T15:09:21;99526.06;;;23.27;56.01
61900;BME280;47853;55.890;37.664;2022-08-07T15:11:53;99517.66;;;23.11;56.71
61900;BME280;47853;55.890;37.664;2022-08-07T15:14:22;99537.94;;;23.26;57.02
61900;BME280;47853;55.890;37.664;2022-08-07T15:17:12;99521.28;;;23.00;59.42
61900;BME280;47853;55.890;37.664;2022-08-07T15:22:15;99541.78;;;23.13;60.42
61900;BME280;47853;55.890;37.664;2022-08-07T15:24:46;99542.59;;;23.13;60.53
61900;BME280;47853;55.890;37.664;2022-08-07T15:27:20;99528.31;;;23.01;59.83
61900;BME280;47853;55.890;37.664;2022-08-07T15:29:49;99541.78;;;22.96;59.96
61900;BME280;47853;55.890;37.664;2022-08-07T15:32:16;99548.34;;;23.00;59.99
61900;BME280;47853;55.890;37.664;2022-08-07T15:34:46;99554.59;;;23.00;60.23
61900;BME280;47853;55.890;37.664;2022-08-07T15:37:18;99539.06;;;22.96;60.53